Time;durP1;ratioP1;P1;durP2;ratioP2;P2;SDS_P1;SDS_P2;PMS_P1;PMS_P2;Temp;Humidity;BMP_temperature;BMP_pressure;BME280_temperature;BME280_humidity;BME280_pressure;Samples;Min_cycle;Max_cycle;Signal;HPM_P1;HPM_P2
2022/07/26 00:02:16;;;;;;;16.13;1.90;;;;;;;;;;5053446;28;20415;-74
2022/07/26 00:04:42;;;;;;;5.73;1.13;;;;;;;;;;5053527;28;20450;-74
2022/07/26 00:07:08;;;;;;;3.30;1.10;;;;;;;;;;5053734;28;20462;-74
2022/07/26 00:09:34;;;;;;;4.50;1.20;;;;;;;;;;5053492;28;20923;-74
2022/07/26 00:12:00;;;;;;;1.83;1.03;;;;;;;;;;5053570;28;20461;-74
2022/07/26 00:14:26;;;;;;;7.23;1.40;;;;;;;;;;5053011;28;20838;-74
2022/07/26 00:16:52;;;;;;;2.83;1.10;;;;;;;;;;5053495;28;20532;-74
2022/07/26 00:19:18;;;;;;;2.20;1.27;;;;;;;;;;5053567;28;20894;-76
2022/07/26 00:21:44;;;;;;;3.20;1.30;;;;;;;;;;5053656;28;20473;-75
2022/07/26 00:24:10;;;;;;;4.17;1.50;;;;;;;;;;5053070;28;20763;-74
2022/07/26 00:26:36;;;;;;;8.13;1.67;;;;;;;;;;5053126;28;21028;-75
2022/07/26 00:29:04;;;;;;;5.43;1.90;;;;;;;;;;5053529;28;20447;-75
2022/07/26 00:31:30;;;;;;;4.53;1.60;;;;;;;;;;5053269;28;20405;-75
2022/07/26 00:33:56;;;;;;;3.23;1.10;;;;;;;;;;5052743;28;20457;-74
2022/07/26 00:36:22;;;;;;;4.40;1.70;;;;;;;;;;5053080;28;20395;-76
2022/07/26 00:38:48;;;;;;;4.97;1.50;;;;;;;;;;5052883;28;20401;-75
2022/07/26 00:41:14;;;;;;;7.80;1.90;;;;;;;;;;5052974;28;20502;-75
2022/07/26 00:44:00;;;;;;;1.67;1.30;;;;;;;;;;5052756;28;20436;-75
2022/07/26 00:46:27;;;;;;;8.57;1.50;;;;;;;;;;5052921;28;20410;-75
2022/07/26 00:48:53;;;;;;;4.93;1.30;;;;;;;;;;5052830;28;20433;-76
2022/07/26 00:51:19;;;;;;;2.10;1.30;;;;;;;;;;5053048;28;20505;-75
2022/07/26 00:53:47;;;;;;;4.30;1.40;;;;;;;;;;5052840;28;20445;-76
2022/07/26 00:56:14;;;;;;;2.60;1.40;;;;;;;;;;5053167;28;20459;-74
2022/07/26 00:58:41;;;;;;;5.20;1.43;;;;;;;;;;5053031;28;20389;-74
2022/07/26 01:01:07;;;;;;;8.13;1.50;;;;;;;;;;5052940;28;20408;-75
2022/07/26 01:03:33;;;;;;;4.67;1.30;;;;;;;;;;5052575;28;20456;-75
2022/07/26 01:05:59;;;;;;;3.80;1.93;;;;;;;;;;5053084;28;20429;-75
2022/07/26 01:08:25;;;;;;;4.10;1.50;;;;;;;;;;5053268;28;20387;-74
2022/07/26 01:10:52;;;;;;;5.83;1.40;;;;;;;;;;5052968;28;20450;-76
2022/07/26 01:13:21;;;;;;;6.00;1.33;;;;;;;;;;5052773;28;20469;-75
2022/07/26 01:15:48;;;;;;;5.87;1.47;;;;;;;;;;5052920;28;20745;-76
2022/07/26 01:18:14;;;;;;;5.57;1.57;;;;;;;;;;5052905;28;20405;-75
2022/07/26 01:20:41;;;;;;;10.00;1.80;;;;;;;;;;5053014;28;20382;-75
2022/07/26 01:23:07;;;;;;;5.70;1.67;;;;;;;;;;5052289;28;20907;-75
2022/07/26 01:25:35;;;;;;;5.27;1.80;;;;;;;;;;5052578;28;20888;-76
2022/07/26 01:28:01;;;;;;;8.43;1.83;;;;;;;;;;5052731;28;20771;-75
2022/07/26 01:30:27;;;;;;;4.10;1.50;;;;;;;;;;5052691;28;20417;-75
2022/07/26 01:32:53;;;;;;;5.07;1.67;;;;;;;;;;5052214;28;20472;-76
2022/07/26 01:35:19;;;;;;;5.53;1.80;;;;;;;;;;5052427;28;20446;-74
2022/07/26 01:37:45;;;;;;;4.00;1.70;;;;;;;;;;5052496;28;20424;-76
2022/07/26 01:40:11;;;;;;;6.50;1.77;;;;;;;;;;5052588;28;20751;-76
2022/07/26 01:42:39;;;;;;;6.80;2.20;;;;;;;;;;5052220;28;20444;-75
2022/07/26 01:45:06;;;;;;;5.80;1.93;;;;;;;;;;5051174;28;20762;-76
2022/07/26 01:47:32;;;;;;;3.13;1.50;;;;;;;;;;5052430;28;20449;-75
2022/07/26 01:49:58;;;;;;;5.87;1.77;;;;;;;;;;5052642;28;20421;-75
2022/07/26 01:52:24;;;;;;;8.43;2.20;;;;;;;;;;5053632;28;20475;-75
2022/07/26 01:54:50;;;;;;;4.93;1.60;;;;;;;;;;5055945;28;20502;-74
2022/07/26 01:57:16;;;;;;;5.50;1.90;;;;;;;;;;5055997;28;20443;-76
2022/07/26 01:59:42;;;;;;;5.57;1.73;;;;;;;;;;5056093;28;20464;-75
2022/07/26 02:02:08;;;;;;;2.70;1.43;;;;;;;;;;5055906;28;20882;-74
2022/07/26 02:07:19;;;;;;;7.67;1.83;;;;;;;;;;5056303;28;20951;-75
2022/07/26 02:09:45;;;;;;;6.00;2.20;;;;;;;;;;5055964;28;20428;-75
2022/07/26 02:12:11;;;;;;;6.43;2.37;;;;;;;;;;5055590;28;20498;-75
2022/07/26 02:14:37;;;;;;;6.67;2.00;;;;;;;;;;5055358;28;20404;-75
2022/07/26 02:17:03;;;;;;;5.47;1.67;;;;;;;;;;5055740;28;20753;-74
2022/07/26 02:19:30;;;;;;;5.40;1.70;;;;;;;;;;5055558;28;20423;-74
2022/07/26 02:21:56;;;;;;;5.80;2.13;;;;;;;;;;5055683;28;20466;-76
2022/07/26 02:24:22;;;;;;;7.47;2.67;;;;;;;;;;5055101;28;20444;-74
2022/07/26 02:26:48;;;;;;;4.77;2.03;;;;;;;;;;5055429;28;20491;-74
2022/07/26 02:29:14;;;;;;;6.53;1.67;;;;;;;;;;5054221;28;20763;-76
2022/07/26 02:31:40;;;;;;;3.77;1.80;;;;;;;;;;5055455;28;20416;-74
2022/07/26 02:34:06;;;;;;;5.23;1.87;;;;;;;;;;5054979;28;20403;-76
2022/07/26 02:36:32;;;;;;;6.33;2.20;;;;;;;;;;5055389;28;20399;-75
2022/07/26 02:38:58;;;;;;;7.50;2.30;;;;;;;;;;5055248;28;20403;-75
2022/07/26 02:41:24;;;;;;;4.50;2.00;;;;;;;;;;5055297;28;20970;-75
2022/07/26 02:43:50;;;;;;;6.40;1.90;;;;;;;;;;5054751;28;20407;-76
2022/07/26 02:46:16;;;;;;;3.63;1.53;;;;;;;;;;5055107;28;20409;-76
2022/07/26 02:48:42;;;;;;;10.57;2.00;;;;;;;;;;5053802;28;20892;-75
2022/07/26 02:51:08;;;;;;;10.07;2.87;;;;;;;;;;5055003;28;20423;-76
2022/07/26 02:53:34;;;;;;;4.30;1.73;;;;;;;;;;5054423;28;20469;-75
2022/07/26 02:56:00;;;;;;;6.33;1.50;;;;;;;;;;5054845;28;20854;-77
2022/07/26 02:58:26;;;;;;;3.63;1.90;;;;;;;;;;5055114;28;20379;-76
2022/07/26 03:00:53;;;;;;;6.80;1.37;;;;;;;;;;5055060;28;20432;-77
2022/07/26 03:03:19;;;;;;;5.93;2.37;;;;;;;;;;5054620;28;20437;-76
2022/07/26 03:05:45;;;;;;;6.47;2.27;;;;;;;;;;5054702;28;20441;-75
2022/07/26 03:08:11;;;;;;;10.13;2.97;;;;;;;;;;5054746;28;20479;-77
2022/07/26 03:10:37;;;;;;;8.70;2.17;;;;;;;;;;5054641;28;20479;-75
2022/07/26 03:13:03;;;;;;;4.70;2.00;;;;;;;;;;5054144;28;20476;-76
2022/07/26 03:15:29;;;;;;;10.87;2.60;;;;;;;;;;5054762;28;20405;-75
2022/07/26 03:17:55;;;;;;;8.33;2.10;;;;;;;;;;5054611;28;20384;-75
2022/07/26 03:20:21;;;;;;;7.20;2.23;;;;;;;;;;5055278;28;20409;-75
2022/07/26 03:22:47;;;;;;;6.00;1.90;;;;;;;;;;5054075;28;20429;-75
2022/07/26 03:25:13;;;;;;;7.97;2.60;;;;;;;;;;5054510;28;20408;-75
2022/07/26 03:27:39;;;;;;;7.80;2.00;;;;;;;;;;5054431;28;20877;-75
2022/07/26 03:30:06;;;;;;;10.57;2.73;;;;;;;;;;5054298;28;20420;-75
2022/07/26 03:32:32;;;;;;;9.33;2.77;;;;;;;;;;5053981;28;20456;-76
2022/07/26 03:34:58;;;;;;;10.43;2.13;;;;;;;;;;5054269;28;20410;-75
2022/07/26 03:37:24;;;;;;;7.73;2.43;;;;;;;;;;5054204;28;20434;-75
2022/07/26 03:39:50;;;;;;;4.90;2.37;;;;;;;;;;5053990;28;20376;-77
2022/07/26 03:42:16;;;;;;;7.13;2.30;;;;;;;;;;5053581;28;20433;-76
2022/07/26 03:44:42;;;;;;;9.13;2.57;;;;;;;;;;5053867;28;20469;-75
2022/07/26 03:47:08;;;;;;;5.97;2.50;;;;;;;;;;5054032;28;20747;-76
2022/07/26 03:49:34;;;;;;;9.57;2.80;;;;;;;;;;5053970;28;20491;-76
2022/07/26 03:52:00;;;;;;;7.03;2.00;;;;;;;;;;5053688;28;20518;-78
2022/07/26 03:54:26;;;;;;;9.00;2.73;;;;;;;;;;5053385;28;20838;-75
2022/07/26 03:56:52;;;;;;;12.80;3.93;;;;;;;;;;5053762;28;20406;-76
2022/07/26 03:59:18;;;;;;;8.23;2.80;;;;;;;;;;5053868;28;20455;-75
2022/07/26 04:01:44;;;;;;;11.73;2.83;;;;;;;;;;5053672;28;20828;-77
2022/07/26 04:04:12;;;;;;;5.67;2.80;;;;;;;;;;5052996;28;20490;-76
2022/07/26 04:06:38;;;;;;;6.73;2.73;;;;;;;;;;5053579;28;20391;-75
2022/07/26 04:09:06;;;;;;;9.67;2.70;;;;;;;;;;5053673;28;20405;-76
2022/07/26 04:11:32;;;;;;;5.30;2.47;;;;;;;;;;5053635;28;20810;-76
2022/07/26 04:13:59;;;;;;;10.00;2.40;;;;;;;;;;5053229;28;20449;-77
2022/07/26 04:16:25;;;;;;;10.90;2.60;;;;;;;;;;5052939;28;20395;-75
2022/07/26 04:18:51;;;;;;;5.40;2.53;;;;;;;;;;5053548;28;20408;-76
2022/07/26 04:21:17;;;;;;;5.90;2.30;;;;;;;;;;5053522;28;20409;-75
2022/07/26 04:23:43;;;;;;;8.60;2.60;;;;;;;;;;5053117;28;20485;-75
2022/07/26 04:26:12;;;;;;;6.80;3.00;;;;;;;;;;5053390;28;20398;-75
2022/07/26 04:28:37;;;;;;;8.10;2.87;;;;;;;;;;5053185;28;20823;-77
2022/07/26 04:31:03;;;;;;;4.70;2.40;;;;;;;;;;5053684;28;20404;-75
2022/07/26 04:33:30;;;;;;;9.93;2.30;;;;;;;;;;5052818;28;20439;-76
2022/07/26 04:35:56;;;;;;;11.13;3.67;;;;;;;;;;5053251;28;20414;-75
2022/07/26 04:38:22;;;;;;;7.00;3.50;;;;;;;;;;5053181;28;20379;-77
2022/07/26 04:40:49;;;;;;;7.40;3.07;;;;;;;;;;5053077;28;20558;-76
2022/07/26 04:43:15;;;;;;;11.77;3.53;;;;;;;;;;5052800;28;20408;-75
2022/07/26 04:45:41;;;;;;;10.30;2.93;;;;;;;;;;5053191;28;20409;-75
2022/07/26 04:48:07;;;;;;;7.70;3.10;;;;;;;;;;5053158;28;20442;-76
2022/07/26 04:50:33;;;;;;;12.30;2.70;;;;;;;;;;5052803;28;20413;-75
2022/07/26 04:52:58;;;;;;;12.13;3.73;;;;;;;;;;5052598;28;20504;-76
2022/07/26 04:55:24;;;;;;;10.07;3.40;;;;;;;;;;5052967;28;20478;-75
2022/07/26 04:57:50;;;;;;;6.40;3.23;;;;;;;;;;5053045;28;20418;-76
2022/07/26 05:00:20;;;;;;;11.43;3.33;;;;;;;;;;5053204;28;20415;-77
2022/07/26 05:02:48;;;;;;;12.10;4.70;;;;;;;;;;5052447;28;20421;-76
2022/07/26 05:05:14;;;;;;;6.67;3.30;;;;;;;;;;5051766;28;20891;-75
2022/07/26 05:07:41;;;;;;;10.50;4.03;;;;;;;;;;5052904;28;20391;-76
2022/07/26 05:10:07;;;;;;;10.90;3.43;;;;;;;;;;5052990;28;20410;-75
2022/07/26 05:12:33;;;;;;;14.87;3.63;;;;;;;;;;5052410;28;20535;-76
2022/07/26 05:14:59;;;;;;;8.10;3.43;;;;;;;;;;5052830;28;20515;-77
2022/07/26 05:17:26;;;;;;;12.07;5.47;;;;;;;;;;5052780;28;20440;-76
2022/07/26 05:19:52;;;;;;;9.80;3.77;;;;;;;;;;5052924;28;20380;-76
2022/07/26 05:22:18;;;;;;;10.60;4.03;;;;;;;;;;5052462;28;20428;-76
2022/07/26 05:24:44;;;;;;;6.63;3.33;;;;;;;;;;5052439;28;20425;-76
2022/07/26 05:27:10;;;;;;;12.17;4.33;;;;;;;;;;5053849;28;20736;-75
2022/07/26 05:29:36;;;;;;;7.90;4.13;;;;;;;;;;5056793;28;20420;-75
2022/07/26 05:32:02;;;;;;;14.23;4.50;;;;;;;;;;5056720;28;20435;-75
2022/07/26 05:34:28;;;;;;;9.63;4.60;;;;;;;;;;5056053;28;20761;-77
2022/07/26 05:36:57;;;;;;;13.17;4.00;;;;;;;;;;5056407;28;20515;-78
2022/07/26 05:39:23;;;;;;;14.50;4.20;;;;;;;;;;5056465;28;20729;-76
2022/07/26 05:41:49;;;;;;;8.60;3.97;;;;;;;;;;5055075;28;20449;-75
2022/07/26 05:44:15;;;;;;;8.37;4.07;;;;;;;;;;5054780;28;20457;-75
2022/07/26 05:46:41;;;;;;;16.67;3.87;;;;;;;;;;5056228;28;20445;-75
2022/07/26 05:49:07;;;;;;;14.40;4.47;;;;;;;;;;5056052;28;20440;-75
2022/07/26 05:51:33;;;;;;;9.30;4.00;;;;;;;;;;5055980;28;20390;-75
2022/07/26 05:53:59;;;;;;;14.70;4.40;;;;;;;;;;5055844;28;20406;-75
2022/07/26 05:56:25;;;;;;;16.03;4.40;;;;;;;;;;5056192;28;20410;-75
2022/07/26 05:58:51;;;;;;;15.20;5.50;;;;;;;;;;5055956;28;20380;-74
2022/07/26 06:01:17;;;;;;;18.37;5.53;;;;;;;;;;5065525;28;20412;-76
2022/07/26 06:03:43;;;;;;;12.20;4.70;;;;;;;;;;5075589;28;20870;-75
2022/07/26 06:06:10;;;;;;;13.37;5.30;;;;;;;;;;5075921;28;20444;-74
2022/07/26 06:08:36;;;;;;;11.10;4.70;;;;;;;;;;5075993;28;20820;-74
2022/07/26 06:11:02;;;;;;;18.20;5.77;;;;;;;;;;5075702;28;20420;-74
2022/07/26 06:13:28;;;;;;;11.73;4.97;;;;;;;;;;5075428;28;20474;-74
2022/07/26 06:15:54;;;;;;;17.60;5.67;;;;;;;;;;5074918;28;20404;-74
2022/07/26 06:18:21;;;;;;;12.50;5.87;;;;;;;;;;5075846;28;20400;-74
2022/07/26 06:20:47;;;;;;;14.43;5.30;;;;;;;;;;5075869;28;20916;-74
2022/07/26 06:23:13;;;;;;;9.90;4.83;;;;;;;;;;5075125;28;20854;-75
2022/07/26 06:25:39;;;;;;;10.33;5.30;;;;;;;;;;5075690;28;20770;-74
2022/07/26 06:28:07;;;;;;;13.47;4.70;;;;;;;;;;5075669;28;20499;-74
2022/07/26 06:30:33;;;;;;;13.90;5.10;;;;;;;;;;5075593;28;20446;-74
2022/07/26 06:32:59;;;;;;;16.27;5.87;;;;;;;;;;5074959;28;20476;-74
2022/07/26 06:35:29;;;;;;;14.93;5.20;;;;;;;;;;5075315;28;20446;-77
2022/07/26 06:37:55;;;;;;;16.43;5.43;;;;;;;;;;5075092;28;20411;-75
2022/07/26 06:40:21;;;;;;;18.87;5.97;;;;;;;;;;5074143;28;20923;-75
2022/07/26 06:42:48;;;;;;;8.77;4.90;;;;;;;;;;5074930;28;20507;-74
2022/07/26 06:45:14;;;;;;;13.30;5.77;;;;;;;;;;5075166;28;20790;-73
2022/07/26 06:47:40;;;;;;;9.13;4.67;;;;;;;;;;5075097;28;20391;-73
2022/07/26 06:50:06;;;;;;;16.30;6.50;;;;;;;;;;5075119;28;20443;-74
2022/07/26 06:52:32;;;;;;;17.53;7.73;;;;;;;;;;5074562;28;20427;-75
2022/07/26 06:54:59;;;;;;;9.30;4.70;;;;;;;;;;5075064;28;20408;-75
2022/07/26 06:57:25;;;;;;;16.87;5.97;;;;;;;;;;5074750;28;20383;-75
2022/07/26 06:59:51;;;;;;;14.80;5.63;;;;;;;;;;5074797;28;20905;-74
2022/07/26 07:02:17;;;;;;;12.77;5.13;;;;;;;;;;5074564;28;20417;-74
2022/07/26 07:04:43;;;;;;;11.13;5.00;;;;;;;;;;5074652;28;20430;-75
2022/07/26 07:07:09;;;;;;;13.60;5.50;;;;;;;;;;5075065;28;20425;-75
2022/07/26 07:09:36;;;;;;;12.37;5.67;;;;;;;;;;5074601;28;20947;-74
2022/07/26 07:12:03;;;;;;;13.97;6.60;;;;;;;;;;5074758;28;20461;-75
2022/07/26 07:14:29;;;;;;;19.00;6.67;;;;;;;;;;5074219;28;20431;-74
2022/07/26 07:16:55;;;;;;;14.60;7.27;;;;;;;;;;5074604;28;20851;-74
2022/07/26 07:19:22;;;;;;;17.53;7.47;;;;;;;;;;5074655;28;20415;-74
2022/07/26 07:21:48;;;;;;;12.10;7.03;;;;;;;;;;5074448;28;20443;-74
2022/07/26 07:24:14;;;;;;;18.60;7.20;;;;;;;;;;5074144;28;20517;-74
2022/07/26 07:26:40;;;;;;;13.87;8.20;;;;;;;;;;5074394;28;20783;-74
2022/07/26 07:29:09;;;;;;;17.10;7.60;;;;;;;;;;5074557;28;20376;-74
2022/07/26 07:31:35;;;;;;;14.37;8.30;;;;;;;;;;5074479;28;20787;-74
2022/07/26 07:34:01;;;;;;;14.93;9.63;;;;;;;;;;5073906;28;20817;-74
2022/07/26 07:36:27;;;;;;;12.83;9.00;;;;;;;;;;5074146;28;20417;-74
2022/07/26 07:38:52;;;;;;;17.73;8.77;;;;;;;;;;5073991;28;20420;-74
2022/07/26 07:41:18;;;;;;;19.10;9.50;;;;;;;;;;5074027;28;20737;-75
2022/07/26 07:43:44;;;;;;;21.43;9.60;;;;;;;;;;5073603;28;20456;-74
2022/07/26 07:46:11;;;;;;;16.63;9.83;;;;;;;;;;5073993;28;20418;-74
2022/07/26 07:48:39;;;;;;;18.87;10.93;;;;;;;;;;5073968;28;20427;-73
2022/07/26 07:51:05;;;;;;;16.40;10.73;;;;;;;;;;5073132;28;20899;-75
2022/07/26 07:53:31;;;;;;;14.53;11.60;;;;;;;;;;5073286;28;20808;-74
2022/07/26 07:55:57;;;;;;;20.43;12.83;;;;;;;;;;5073651;28;20384;-75
2022/07/26 07:58:24;;;;;;;14.90;11.80;;;;;;;;;;5073728;28;20419;-74
2022/07/26 08:00:50;;;;;;;16.37;13.00;;;;;;;;;;5073680;28;20413;-75
2022/07/26 08:03:16;;;;;;;23.03;12.30;;;;;;;;;;5073243;28;20434;-74
2022/07/26 08:05:42;;;;;;;18.23;13.33;;;;;;;;;;5073526;28;20458;-74
2022/07/26 08:08:08;;;;;;;18.93;13.40;;;;;;;;;;5073545;28;20520;-75
2022/07/26 08:10:34;;;;;;;15.23;12.00;;;;;;;;;;5072434;28;20424;-75
2022/07/26 08:13:00;;;;;;;17.10;12.47;;;;;;;;;;5072963;28;20471;-75
2022/07/26 08:15:26;;;;;;;15.70;12.50;;;;;;;;;;5073738;28;20387;-75
2022/07/26 08:17:53;;;;;;;17.90;11.73;;;;;;;;;;5073788;28;20406;-74
2022/07/26 08:20:19;;;;;;;19.73;12.23;;;;;;;;;;5073574;28;20844;-74
2022/07/26 08:22:45;;;;;;;19.80;13.80;;;;;;;;;;5073016;28;20414;-74
2022/07/26 08:25:11;;;;;;;20.73;13.40;;;;;;;;;;5072600;28;20448;-73
2022/07/26 08:27:37;;;;;;;27.00;13.67;;;;;;;;;;5062317;28;20495;-76
2022/07/26 08:30:04;;;;;;;21.13;12.70;;;;;;;;;;5059754;28;20922;-75
2022/07/26 08:32:30;;;;;;;21.77;12.77;;;;;;;;;;5062007;28;20462;-75
2022/07/26 08:34:56;;;;;;;19.87;13.37;;;;;;;;;;5062422;28;20411;-75
2022/07/26 08:37:22;;;;;;;16.30;13.27;;;;;;;;;;5064037;28;20914;-75
2022/07/26 08:39:48;;;;;;;16.37;11.87;;;;;;;;;;5073163;28;20446;-76
2022/07/26 08:42:21;;;;;;;20.53;12.37;;;;;;;;;;5072110;28;20422;-75
2022/07/26 08:44:47;;;;;;;19.10;11.33;;;;;;;;;;5073131;28;20421;-75
2022/07/26 08:47:13;;;;;;;14.50;9.97;;;;;;;;;;5073269;28;20385;-75
2022/07/26 08:49:40;;;;;;;17.80;12.53;;;;;;;;;;5073006;28;20439;-75
2022/07/26 08:52:06;;;;;;;15.27;10.57;;;;;;;;;;5072857;28;20488;-76
2022/07/26 08:54:32;;;;;;;14.17;10.97;;;;;;;;;;5072562;28;20427;-75
2022/07/26 08:56:58;;;;;;;25.40;11.97;;;;;;;;;;5073203;28;20411;-75
2022/07/26 08:59:25;;;;;;;13.10;10.50;;;;;;;;;;5073180;28;20889;-76
2022/07/26 09:01:58;;;;;;;14.43;10.23;;;;;;;;;;5075424;28;20661;-75
2022/07/26 09:04:28;;;;;;;13.17;9.43;;;;;;;;;;5076505;28;20535;-77
2022/07/26 09:06:57;;;;;;;16.83;9.87;;;;;;;;;;5077206;28;20772;-76
2022/07/26 09:09:23;;;;;;;12.93;9.90;;;;;;;;;;5077500;28;20414;-75
2022/07/26 09:11:49;;;;;;;17.63;10.87;;;;;;;;;;5077067;28;20422;-75
2022/07/26 09:14:15;;;;;;;16.40;9.30;;;;;;;;;;5076451;28;20431;-75
2022/07/26 09:16:41;;;;;;;16.10;10.47;;;;;;;;;;5076893;28;20504;-75
2022/07/26 09:19:16;;;;;;;12.30;9.10;;;;;;;;;;5077126;28;20465;-76
2022/07/26 09:21:42;;;;;;;14.13;10.27;;;;;;;;;;5076886;28;20403;-75
2022/07/26 09:24:09;;;;;;;12.17;8.87;;;;;;;;;;5076444;28;20436;-75
2022/07/26 09:26:35;;;;;;;13.10;9.10;;;;;;;;;;5076532;28;20957;-75
2022/07/26 09:29:11;;;;;;;10.90;7.40;;;;;;;;;;5076739;28;20404;-75
2022/07/26 09:31:37;;;;;;;14.90;7.40;;;;;;;;;;5076645;28;20431;-75
2022/07/26 09:34:04;;;;;;;8.00;6.67;;;;;;;;;;5074821;28;20542;-75
2022/07/26 09:36:30;;;;;;;11.60;7.40;;;;;;;;;;5076498;28;20453;-77
2022/07/26 09:38:57;;;;;;;11.33;8.67;;;;;;;;;;5076400;28;20407;-75
2022/07/26 09:41:28;;;;;;;17.70;9.00;;;;;;;;;;5076449;28;20415;-75
2022/07/26 09:43:55;;;;;;;10.67;7.13;;;;;;;;;;5075955;28;20827;-76
2022/07/26 09:46:24;;;;;;;10.60;5.00;;;;;;;;;;5076492;28;20912;-75
2022/07/26 09:48:51;;;;;;;8.47;5.40;;;;;;;;;;5076204;28;20399;-75
2022/07/26 09:51:33;;;;;;;6.40;5.30;;;;;;;;;;5076208;28;20423;-76
2022/07/26 09:53:59;;;;;;;9.60;5.30;;;;;;;;;;5075853;28;20470;-75
2022/07/26 09:56:40;;;;;;;7.13;4.93;;;;;;;;;;5075955;28;20478;-74
2022/07/26 09:59:08;;;;;;;10.73;5.30;;;;;;;;;;5076829;28;20872;-75
2022/07/26 10:01:34;;;;;;;6.90;5.87;;;;;;;;;;5078783;28;20904;-75
2022/07/26 10:04:00;;;;;;;8.20;5.90;;;;;;;;;;5074386;28;20438;-75
2022/07/26 10:06:25;;;;;;;11.70;7.33;;;;;;;;;;5075985;28;20411;-75
2022/07/26 10:08:52;;;;;;;11.57;7.37;;;;;;;;;;5075740;28;20412;-76
2022/07/26 10:11:19;;;;;;;9.40;7.80;;;;;;;;;;5075459;28;20419;-75
2022/07/26 10:13:45;;;;;;;14.37;6.97;;;;;;;;;;5073352;28;20852;-75
2022/07/26 10:16:31;;;;;;;10.47;6.10;;;;;;;;;;5075644;28;20549;-75
2022/07/26 10:18:57;;;;;;;15.50;6.73;;;;;;;;;;5075535;28;20415;-74
2022/07/26 10:21:25;;;;;;;10.83;5.50;;;;;;;;;;5075748;28;20420;-76
2022/07/26 10:23:58;;;;;;;9.23;5.40;;;;;;;;;;5074222;28;20427;-76
2022/07/26 10:26:36;;;;;;;9.00;4.30;;;;;;;;;;5074468;28;20427;-75
2022/07/26 10:29:17;;;;;;;7.47;4.30;;;;;;;;;;5075443;28;20415;-75
2022/07/26 10:31:46;;;;;;;5.80;4.10;;;;;;;;;;5075542;28;20416;-76
2022/07/26 10:34:31;;;;;;;4.77;3.87;;;;;;;;;;5075018;28;20443;-76
2022/07/26 10:36:58;;;;;;;11.70;4.17;;;;;;;;;;5075416;28;20404;-76
2022/07/26 10:39:25;;;;;;;6.70;3.80;;;;;;;;;;5075300;28;20453;-75
2022/07/26 10:41:58;;;;;;;6.73;3.53;;;;;;;;;;5075051;28;20498;-75
2022/07/26 10:44:26;;;;;;;7.13;3.43;;;;;;;;;;5074891;28;20420;-76
2022/07/26 10:46:55;;;;;;;6.37;3.30;;;;;;;;;;5075202;28;20400;-75
2022/07/26 10:49:26;;;;;;;8.67;3.73;;;;;;;;;;5074869;28;20404;-75
2022/07/26 10:52:04;;;;;;;6.10;3.77;;;;;;;;;;5075028;28;20407;-75
2022/07/26 10:54:30;;;;;;;7.63;3.93;;;;;;;;;;5074780;28;20427;-76
2022/07/26 10:56:56;;;;;;;7.07;4.57;;;;;;;;;;5074997;28;20408;-74
2022/07/26 10:59:31;;;;;;;10.63;3.97;;;;;;;;;;5073546;28;20411;-75
2022/07/26 11:01:58;;;;;;;6.63;3.80;;;;;;;;;;5074937;28;20502;-75
2022/07/26 11:04:24;;;;;;;5.80;3.13;;;;;;;;;;5074127;28;20446;-75
2022/07/26 11:06:51;;;;;;;5.47;3.00;;;;;;;;;;5073584;28;20427;-75
2022/07/26 11:09:18;;;;;;;6.07;3.30;;;;;;;;;;5074506;28;20419;-75
2022/07/26 11:11:45;;;;;;;8.60;3.40;;;;;;;;;;5074603;28;20416;-75
2022/07/26 11:14:13;;;;;;;5.93;3.17;;;;;;;;;;5074406;28;20420;-75
2022/07/26 11:16:40;;;;;;;6.37;3.00;;;;;;;;;;5075040;28;20400;-75
2022/07/26 11:19:13;;;;;;;8.43;3.40;;;;;;;;;;5073535;28;20416;-75
2022/07/26 11:21:40;;;;;;;4.53;3.40;;;;;;;;;;5074619;28;20468;-75
2022/07/26 11:24:06;;;;;;;7.90;4.10;;;;;;;;;;5073355;28;20447;-75
2022/07/26 11:26:39;;;;;;;14.40;5.23;;;;;;;;;;5074203;28;20482;-75
2022/07/26 11:29:05;;;;;;;9.70;5.97;;;;;;;;;;5074647;28;20770;-74
2022/07/26 11:31:36;;;;;;;7.13;5.20;;;;;;;;;;5073010;28;20423;-75
2022/07/26 11:34:03;;;;;;;5.53;4.93;;;;;;;;;;5073982;28;20473;-76
2022/07/26 11:36:55;;;;;;;6.07;3.93;;;;;;;;;;5074525;28;20411;-74
2022/07/26 11:39:21;;;;;;;4.83;3.03;;;;;;;;;;5071605;28;20445;-75
2022/07/26 11:41:47;;;;;;;3.60;2.80;;;;;;;;;;5068969;28;20492;-74
2022/07/26 11:44:16;;;;;;;2.97;2.30;;;;;;;;;;5061661;28;20408;-76
2022/07/26 11:46:48;;;;;;;3.30;3.00;;;;;;;;;;5064218;28;20383;-75
2022/07/26 11:49:16;;;;;;;6.50;3.10;;;;;;;;;;5064392;28;20411;-75
2022/07/26 11:51:53;;;;;;;3.37;3.10;;;;;;;;;;5062367;28;20387;-75
2022/07/26 11:54:19;;;;;;;5.57;4.10;;;;;;;;;;5058740;28;21012;-75
2022/07/26 11:56:56;;;;;;;5.63;3.97;;;;;;;;;;5053883;28;20405;-74
2022/07/26 11:59:23;;;;;;;5.37;4.03;;;;;;;;;;5053854;28;20435;-75
2022/07/26 12:01:49;;;;;;;5.40;3.90;;;;;;;;;;5053615;28;20408;-74
2022/07/26 12:04:23;;;;;;;4.67;4.07;;;;;;;;;;5053174;28;20455;-75
2022/07/26 12:06:49;;;;;;;4.20;3.70;;;;;;;;;;5053656;28;20413;-75
2022/07/26 12:09:27;;;;;;;4.63;4.23;;;;;;;;;;5053719;28;20394;-75
2022/07/26 12:11:53;;;;;;;7.07;4.30;;;;;;;;;;5053500;28;20403;-75
2022/07/26 12:14:26;;;;;;;4.83;4.33;;;;;;;;;;5053010;28;20461;-76
2022/07/26 12:16:52;;;;;;;6.13;4.80;;;;;;;;;;5053610;28;20394;-76
2022/07/26 12:19:18;;;;;;;11.20;4.63;;;;;;;;;;5053492;28;20420;-75
2022/07/26 12:21:46;;;;;;;5.57;5.07;;;;;;;;;;5053349;28;20863;-76
2022/07/26 12:24:13;;;;;;;5.33;4.93;;;;;;;;;;5053005;28;20778;-75
2022/07/26 12:26:39;;;;;;;10.33;5.67;;;;;;;;;;5053337;28;20411;-75
2022/07/26 12:29:24;;;;;;;12.70;4.97;;;;;;;;;;5053340;28;20412;-75
2022/07/26 12:32:02;;;;;;;5.23;4.83;;;;;;;;;;5053434;28;20477;-75
2022/07/26 12:34:28;;;;;;;7.37;4.90;;;;;;;;;;5053126;28;20463;-76
2022/07/26 12:36:54;;;;;;;9.83;4.77;;;;;;;;;;5053029;28;20393;-75
2022/07/26 12:39:20;;;;;;;6.70;4.00;;;;;;;;;;5053303;28;20411;-75
2022/07/26 12:41:49;;;;;;;5.43;4.10;;;;;;;;;;5053144;28;20386;-75
2022/07/26 12:44:15;;;;;;;4.20;3.80;;;;;;;;;;5052810;28;20471;-75
2022/07/26 12:46:43;;;;;;;9.77;4.13;;;;;;;;;;5053124;28;20419;-75
2022/07/26 12:49:09;;;;;;;9.53;3.97;;;;;;;;;;5053156;28;20398;-75
2022/07/26 12:51:36;;;;;;;8.30;4.10;;;;;;;;;;5052900;28;20413;-75
2022/07/26 12:54:04;;;;;;;5.00;3.27;;;;;;;;;;5053519;28;20472;-75
2022/07/26 12:56:30;;;;;;;10.70;3.90;;;;;;;;;;5052974;28;20413;-74
2022/07/26 12:58:59;;;;;;;4.53;3.30;;;;;;;;;;5052884;28;20412;-76
2022/07/26 13:01:26;;;;;;;9.27;3.77;;;;;;;;;;5052836;28;20409;-76
2022/07/26 13:03:52;;;;;;;4.43;3.47;;;;;;;;;;5052475;28;20432;-76
2022/07/26 13:06:18;;;;;;;7.23;5.60;;;;;;;;;;5052672;28;20436;-75
2022/07/26 13:08:44;;;;;;;5.70;3.03;;;;;;;;;;5052935;28;20412;-75
2022/07/26 13:11:10;;;;;;;6.03;3.13;;;;;;;;;;5052840;28;20465;-75
2022/07/26 13:13:36;;;;;;;7.37;3.23;;;;;;;;;;5052402;28;20559;-76
2022/07/26 13:16:02;;;;;;;5.23;3.57;;;;;;;;;;5052672;28;20505;-76
2022/07/26 13:18:28;;;;;;;3.03;2.70;;;;;;;;;;5053068;28;20409;-74
2022/07/26 13:20:54;;;;;;;8.20;2.50;;;;;;;;;;5052808;28;20416;-74
2022/07/26 13:23:20;;;;;;;5.30;2.83;;;;;;;;;;5053764;28;20520;-74
2022/07/26 13:25:46;;;;;;;5.37;2.33;;;;;;;;;;5054091;28;20448;-74
2022/07/26 13:28:12;;;;;;;3.77;2.10;;;;;;;;;;5052697;28;20506;-75
2022/07/26 13:30:41;;;;;;;2.27;1.83;;;;;;;;;;5071739;28;20419;-75
2022/07/26 13:33:07;;;;;;;7.77;3.20;;;;;;;;;;5072384;28;20463;-75
2022/07/26 13:35:33;;;;;;;8.23;2.73;;;;;;;;;;5072681;28;20416;-74
2022/07/26 13:37:59;;;;;;;4.53;2.10;;;;;;;;;;5072639;28;20418;-75
2022/07/26 13:40:26;;;;;;;4.60;2.30;;;;;;;;;;5072559;28;20400;-74
2022/07/26 13:42:52;;;;;;;5.20;2.63;;;;;;;;;;5072393;28;20837;-75
2022/07/26 13:45:18;;;;;;;4.23;2.00;;;;;;;;;;5060091;28;20421;-74
2022/07/26 13:47:44;;;;;;;4.17;2.20;;;;;;;;;;5052995;28;20488;-75
2022/07/26 13:50:10;;;;;;;2.80;2.10;;;;;;;;;;5056490;28;20508;-75
2022/07/26 13:52:36;;;;;;;5.17;2.30;;;;;;;;;;5055640;28;20475;-75
2022/07/26 13:55:02;;;;;;;4.70;2.10;;;;;;;;;;5056427;28;20405;-75
2022/07/26 13:57:28;;;;;;;4.27;2.40;;;;;;;;;;5055893;28;20499;-73
2022/07/26 13:59:54;;;;;;;4.37;2.10;;;;;;;;;;5056100;28;20440;-74
2022/07/26 14:02:20;;;;;;;8.53;2.70;;;;;;;;;;5055557;28;20963;-73
2022/07/26 14:04:47;;;;;;;3.07;2.70;;;;;;;;;;5055589;28;20482;-73
2022/07/26 14:07:13;;;;;;;9.77;3.37;;;;;;;;;;5055898;28;20420;-73
2022/07/26 14:09:39;;;;;;;5.37;3.03;;;;;;;;;;5055889;28;20462;-74
2022/07/26 14:12:05;;;;;;;3.87;3.30;;;;;;;;;;5056093;28;20420;-75
2022/07/26 14:14:31;;;;;;;7.63;3.40;;;;;;;;;;5055579;28;20437;-74
2022/07/26 14:16:57;;;;;;;5.43;2.37;;;;;;;;;;5055815;28;20412;-74
2022/07/26 14:19:23;;;;;;;2.40;1.77;;;;;;;;;;5055761;28;20757;-74
2022/07/26 14:21:50;;;;;;;2.40;1.70;;;;;;;;;;5054532;28;20428;-75
2022/07/26 14:24:16;;;;;;;4.10;2.00;;;;;;;;;;5055362;28;20472;-74
2022/07/26 14:26:42;;;;;;;4.87;1.60;;;;;;;;;;5055568;28;20780;-74
2022/07/26 14:29:08;;;;;;;3.10;2.00;;;;;;;;;;5055540;28;20440;-74
2022/07/26 14:31:34;;;;;;;3.00;1.63;;;;;;;;;;5055586;28;20421;-75
2022/07/26 14:34:00;;;;;;;2.90;1.30;;;;;;;;;;5055084;28;20462;-75
2022/07/26 14:36:26;;;;;;;6.63;1.50;;;;;;;;;;5055634;28;20467;-75
2022/07/26 14:38:54;;;;;;;3.30;1.80;;;;;;;;;;5055304;28;20408;-75